Sedov — UELO — position and weather

sailwx.info

Track history (hours):
 
Tides and Currents Weather Stations Pressure Air Temp Water Temp Dewpoint Dewpoint Depression Visibility Wind Speed Wind Dir Waves Ship Positions

Sedov (Russia)

Last reported at 2019-Aug-23 10:10 UTC. Time now 2019-Aug-24 19:51 UTC.
Position N 54°42' E 020°28'.

Length 118 m; draft 6.4 m.

Type: Sailing vessel. MMSI: 273510000.

Date/timePositionNaut miles runAvg speedWind from/ knotsBaromVisibWave heightAir tempDewpointWater temp
2019-Aug-23 10:10N 54°42' E 020°28'0 0.0
2019-Aug-23 09:58N 54°42' E 020°28'0 0.0
2019-Aug-23 09:28N 54°42' E 020°28'0 0.0
2019-Aug-23 08:58N 54°42' E 020°28'0 0.0
2019-Aug-23 08:28N 54°42' E 020°28'0 0.0
2019-Aug-23 07:58N 54°42' E 020°28'0 0.0
2019-Aug-23 07:28N 54°42' E 020°28'0 0.0
2019-Aug-23 06:58N 54°42' E 020°28'0 0.0
2019-Aug-23 06:28N 54°42' E 020°28'0 0.0
2019-Aug-23 05:58N 54°42' E 020°28'0 0.0
2019-Aug-23 05:28N 54°42' E 020°28'0 0.0
2019-Aug-23 04:58N 54°42' E 020°28'0 0.0
2019-Aug-23 04:30N 54°42' E 020°28'1 1.6
2019-Aug-23 04:01N 54°42' E 020°27'3 5.9
2019-Aug-23 03:30N 54°41' E 020°22'4 7.1
2019-Aug-23 03:00N 54°41' E 020°16'4 8.2
2019-Aug-23 02:30N 54°40' E 020°09'5 9.0
2019-Aug-23 02:00N 54°38' E 020°01'4 8.7
2019-Aug-23 01:30N 54°38' E 019°54'3 5.9
2019-Aug-23 01:00N 54°40' E 019°50'2 4.9
2019-Aug-23 00:31N 54°41' E 019°46'3 5.2
2019-Aug-23 00:01N 54°42' E 019°42'3 5.2
2019-Aug-22 23:30N 54°43' E 019°38'3 5.1
2019-Aug-22 23:00N 54°44' E 019°34'2 4.6
2019-Aug-22 22:31N 54°45' E 019°30'3 6.1
2019-Aug-22 22:00N 54°42' E 019°26'3 5.9
2019-Aug-22 21:30N 54°40' E 019°23'1 2.1
2019-Aug-22 21:00N 54°41' E 019°24'2 4.1
2019-Aug-22 20:30N 54°42' E 019°26'2 4.5
2019-Aug-22 20:00N 54°44' E 019°29'3 6.0
2019-Aug-22 19:30N 54°47' E 019°31'4 7.5
2019-Aug-22 19:00N 54°51' E 019°31'3 6.3
2019-Aug-22 18:30N 54°54' E 019°30'1 1.7
2019-Aug-22 18:00N 54°53' E 019°31'0 0.5
2019-Aug-22 17:30N 54°53' E 019°31'1 2.1
2019-Aug-22 17:00N 54°52' E 019°31'1 1.1
2019-Aug-22 16:30N 54°51' E 019°31'1 1.5
2019-Aug-22 16:00N 54°51' E 019°31'81 2.1
2019-Aug-21 01:02N 56°10' E 019°02'0 0.9
2019-Aug-21 00:59N 56°10' E 019°02'1 0.9
2019-Aug-21 00:23N 56°09' E 019°02'1 0.9
2019-Aug-20 23:33N 56°09' E 019°01'0 1.0
2019-Aug-20 23:26N 56°09' E 019°01'1 1.0
2019-Aug-20 22:50N 56°08' E 019°02'2 4.9
2019-Aug-20 22:24N 56°10' E 018°60'3 5.6
2019-Aug-20 21:56N 56°12' E 018°57'  
2019-Aug-18 13:18N 55°30' E 018°45'0 0.4
2019-Aug-18 12:58N 55°30' E 018°45'1 2.2
2019-Aug-18 12:30N 55°30' E 018°44'23 4.8
2019-Aug-18 07:46N 55°25' E 018°05'5 5.4
2019-Aug-18 06:53N 55°29' E 017°58'3 1.0
2019-Aug-18 03:16N 55°27' E 017°53'0 1.1
2019-Aug-18 02:52N 55°27' E 017°52'0 1.1
2019-Aug-18 02:30N 55°26' E 017°51'1 1.2
2019-Aug-18 02:00N 55°26' E 017°51'1 1.2
2019-Aug-18 01:30N 55°25' E 017°50'1 1.2
2019-Aug-18 00:58N 55°25' E 017°50'2 4.8
2019-Aug-18 00:30N 55°23' E 017°51'17 1.6
2019-Aug-17 14:08N 55°12' E 017°28'23 9.0
2019-Aug-17 11:34N 55°05' E 016°50'1 8.8
2019-Aug-17 11:30N 55°04' E 016°49'4 8.8
2019-Aug-17 11:00N 55°04' E 016°42'4 8.8
2019-Aug-17 10:30N 55°02' E 016°35'4 8.8
2019-Aug-17 10:00N 55°01' E 016°27'5 9.2
2019-Aug-17 09:30N 54°59' E 016°20'5 9.1
2019-Aug-17 09:00N 54°58' E 016°12'5 8.9
2019-Aug-17 08:29N 54°56' E 016°05'7 8.5
2019-Aug-17 07:40N 54°51' E 015°57'68 8.6
2019-Aug-16 23:46N 54°40' E 014°01'2 8.7
2019-Aug-16 23:30N 54°40' E 013°57'5 9.0
2019-Aug-16 22:58N 54°42' E 013°49'4 8.7
2019-Aug-16 22:28N 54°43' E 013°42'29 9.0
2019-Aug-16 19:14N 54°44' E 012°52'1 5.8
2019-Aug-16 19:00N 54°44' E 012°50'2 3.7
2019-Aug-16 18:30N 54°43' E 012°47'9 9.2
2019-Aug-16 17:29N 54°40' E 012°32'5 9.7
2019-Aug-16 16:57N 54°37' E 012°24'4 9.0
2019-Aug-16 16:30N 54°34' E 012°19'9 9.0
2019-Aug-16 15:29N 54°26' E 012°12'4 7.4
2019-Aug-16 14:59N 54°24' E 012°06'12 8.5
2019-Aug-16 13:36N 54°24' E 011°46'110.8
2019-Aug-16 13:30N 54°25' E 011°45'510.5
2019-Aug-16 13:00N 54°27' E 011°37'5 9.8
2019-Aug-16 12:30N 54°29' E 011°29'510.4
2019-Aug-16 12:00N 54°32' E 011°21'510.5
2019-Aug-16 11:30N 54°34' E 011°13'510.7
2019-Aug-16 11:00N 54°37' E 011°05'510.2
2019-Aug-16 10:30N 54°40' E 010°58'5 9.2
2019-Aug-16 10:00N 54°43' E 010°52'5 9.5
2019-Aug-16 09:30N 54°48' E 010°52'5 9.4
2019-Aug-16 09:00N 54°52' E 010°53'4 8.6
2019-Aug-16 08:30N 54°56' E 010°56'4 8.4
2019-Aug-16 08:00N 54°60' E 011°01'4 8.9
2019-Aug-16 07:30N 55°04' E 011°02'4 8.9
2019-Aug-16 07:00N 55°08' E 011°02'4 8.4
2019-Aug-16 06:30N 55°12' E 011°05'5 9.0
2019-Aug-16 06:00N 55°17' E 011°04'6 8.3
2019-Aug-16 05:18N 55°22' E 011°02'98 7.2
2019-Aug-15 15:43N 56°57' E 011°44'1 6.0
2019-Aug-15 15:29N 56°59' E 011°43'3 6.2
2019-Aug-15 15:00N 57°01' E 011°41'3 6.5
2019-Aug-15 14:30N 57°04' E 011°39'3 6.0
2019-Aug-15 14:00N 57°07' E 011°37'3 6.8
2019-Aug-15 13:30N 57°11' E 011°35'3 6.8
2019-Aug-15 13:00N 57°14' E 011°33'4 7.0
2019-Aug-15 12:30N 57°17' E 011°31'3 6.1
2019-Aug-15 12:00N 57°20' E 011°29'3 5.6
2019-Aug-15 11:30N 57°23' E 011°27'3 5.8
2019-Aug-15 11:00N 57°25' E 011°25'3 6.4
2019-Aug-15 10:30N 57°28' E 011°22'3 6.6
2019-Aug-15 10:00N 57°30' E 011°18'4 7.0
2019-Aug-15 09:30N 57°33' E 011°13'4 7.4
2019-Aug-15 09:00N 57°35' E 011°08'4 7.6
2019-Aug-15 08:30N 57°38' E 011°03'4 7.3
2019-Aug-15 08:00N 57°40' E 010°58'4 7.4
2019-Aug-15 07:30N 57°43' E 010°53'4 7.7
2019-Aug-15 07:01N 57°45' E 010°48'5 9.0
2019-Aug-15 06:30N 57°49' E 010°42'5 9.4
2019-Aug-15 06:00N 57°50' E 010°33'510.1
2019-Aug-15 05:30N 57°50' E 010°23'5 9.9
2019-Aug-15 04:59N 57°49' E 010°14'710.0
2019-Aug-15 04:15N 57°49' E 010°00'510.0
2019-Aug-15 03:48N 57°49' E 009°51'710.2
2019-Aug-15 03:05N 57°49' E 009°38'110.9
2019-Aug-15 02:59N 57°49' E 009°36'511.0
2019-Aug-15 02:29N 57°49' E 009°26'510.7
2019-Aug-15 01:59N 57°48' E 009°15'510.6
2019-Aug-15 01:30N 57°48' E 009°06'510.6
2019-Aug-15 01:00N 57°47' E 008°56'610.9
2019-Aug-15 00:30N 57°46' E 008°46'510.8
2019-Aug-15 00:01N 57°45' E 008°36'510.5
2019-Aug-14 23:31N 57°44' E 008°27'510.1
2019-Aug-14 23:00N 57°43' E 008°17'5 9.7
2019-Aug-14 22:31N 57°42' E 008°08'5 9.6
2019-Aug-14 22:00N 57°42' E 007°59'5 9.9
2019-Aug-14 21:31N 57°41' E 007°50'510.0
2019-Aug-14 21:00N 57°41' E 007°41'5 9.7
2019-Aug-14 20:30N 57°41' E 007°32'5 9.2
2019-Aug-14 20:00N 57°42' E 007°23'5 9.4
2019-Aug-14 19:30N 57°42' E 007°14'5 9.2
2019-Aug-14 19:00N 57°43' E 007°06'4 8.9
2019-Aug-14 18:30N 57°43' E 006°58'5 9.9
2019-Aug-14 18:00N 57°43' E 006°48'510.1
2019-Aug-14 17:30N 57°43' E 006°39'5 9.8
2019-Aug-14 17:00N 57°45' E 006°30'5 9.7
2019-Aug-14 16:30N 57°48' E 006°23'4 7.4
2019-Aug-14 16:00N 57°50' E 006°17'1 1.9
2019-Aug-14 15:29N 57°51' E 006°16'2 3.4
2019-Aug-14 15:00N 57°52' E 006°14'2 3.6
2019-Aug-14 14:30N 57°54' E 006°12'1 2.4
2019-Aug-14 14:00N 57°55' E 006°11'2 3.6
2019-Aug-14 13:30N 57°56' E 006°09'2 4.2
2019-Aug-14 13:00N 57°55' E 006°05'2 3.5
2019-Aug-14 12:29N 57°53' E 006°05'0 0.5
2019-Aug-14 12:01N 57°53' E 006°05'1 1.4
2019-Aug-14 11:30N 57°53' E 006°05'4 7.4
2019-Aug-14 11:00N 57°57' E 006°02'510.3
2019-Aug-14 10:30N 58°00' E 005°55'5 9.3
2019-Aug-14 10:00N 58°03' E 005°48'5 9.5
2019-Aug-14 09:30N 58°06' E 005°42'510.0
2019-Aug-14 09:00N 58°10' E 005°35'5 9.9
2019-Aug-14 08:30N 58°13' E 005°27'5 9.7
2019-Aug-14 08:00N 58°16' E 005°20'5 9.6
2019-Aug-14 07:30N 58°19' E 005°14'5 9.4
2019-Aug-14 07:01N 58°23' E 005°08'5 9.3
2019-Aug-14 06:30N 58°26' E 005°02'5 9.1
2019-Aug-14 06:00N 58°30' E 004°57'4 9.0
2019-Aug-14 05:30N 58°33' E 004°51'5 9.5
2019-Aug-14 05:00N 58°37' E 004°45'5 9.6
2019-Aug-14 04:31N 58°40' E 004°39'5 9.9
2019-Aug-14 04:00N 58°44' E 004°32'510.5
2019-Aug-14 03:30N 58°48' E 004°25'510.6
2019-Aug-14 03:00N 58°52' E 004°18'510.3
2019-Aug-14 02:30N 58°55' E 004°11'510.2
2019-Aug-14 01:59N 58°59' E 004°03'4 9.4
2019-Aug-14 01:30N 59°03' E 004°02'5 9.5
2019-Aug-14 01:01N 59°08' E 004°02'5 9.3
2019-Aug-14 00:30N 59°12' E 004°02'5 9.4
2019-Aug-14 00:00N 59°17' E 004°02'4 9.0
2019-Aug-13 23:30N 59°22' E 004°02'4 8.7
2019-Aug-13 23:00N 59°26' E 004°02'5 9.1
2019-Aug-13 22:30N 59°31' E 004°02'5 9.4
2019-Aug-13 21:59N 59°35' E 004°02'5 9.4
2019-Aug-13 21:30N 59°40' E 004°02'5 9.6
2019-Aug-13 21:00N 59°45' E 004°03'5 9.5
2019-Aug-13 20:30N 59°49' E 004°03'5 9.8
2019-Aug-13 20:00N 59°54' E 004°03'5 9.4
2019-Aug-13 19:30N 59°59' E 004°03'5 9.5
2019-Aug-13 19:00N 60°04' E 004°03'5 9.5
2019-Aug-13 18:30N 60°09' E 004°03'5 9.6
2019-Aug-13 17:59N 60°13' E 004°03'5 9.6
2019-Aug-13 17:30N 60°18' E 004°03'5 9.4
2019-Aug-13 17:00N 60°23' E 004°03'5 9.1
2019-Aug-13 16:30N 60°27' E 004°02'5 9.5
2019-Aug-13 16:00N 60°32' E 004°03'5 9.7
2019-Aug-13 15:29N 60°37' E 004°03'5 9.6
2019-Aug-13 15:00N 60°42' E 004°03'5 9.7
2019-Aug-13 14:30N 60°47' E 004°03'5 9.7
2019-Aug-13 14:00N 60°51' E 004°03'5 9.5
2019-Aug-13 13:30N 60°56' E 004°03'5 9.2
2019-Aug-13 12:59N 61°01' E 004°03'4 8.9
2019-Aug-13 12:30N 61°05' E 004°03'5 8.9
2019-Aug-13 11:59N 61°10' E 004°03'4 8.9
2019-Aug-13 11:29N 61°14' E 004°03'4 8.9
2019-Aug-13 11:00N 61°19' E 004°03'4 9.0
2019-Aug-13 10:30N 61°23' E 004°03'  
Track history (hours):
 
Tides and Currents Weather Stations Pressure Air Temp Water Temp Dewpoint Dewpoint Depression Visibility Wind Speed Wind Dir Waves Ship Positions

Sedov (Russia)

Last reported at 2019-Aug-23 10:10 UTC. Time now 2019-Aug-24 19:51 UTC.
Position N 54°42' E 020°28'.

Length 118 m; draft 6.4 m.

Type: Sailing vessel. MMSI: 273510000.

Date/timePositionNaut miles runAvg speedWind from/ knotsBaromVisibWave heightAir tempDewpointWater temp
2019-Aug-23 10:10N 54°42' E 020°28'0 0.0
2019-Aug-23 09:58N 54°42' E 020°28'0 0.0
2019-Aug-23 09:28N 54°42' E 020°28'0 0.0
2019-Aug-23 08:58N 54°42' E 020°28'0 0.0
2019-Aug-23 08:28N 54°42' E 020°28'0 0.0
2019-Aug-23 07:58N 54°42' E 020°28'0 0.0
2019-Aug-23 07:28N 54°42' E 020°28'0 0.0
2019-Aug-23 06:58N 54°42' E 020°28'0 0.0
2019-Aug-23 06:28N 54°42' E 020°28'0 0.0
2019-Aug-23 05:58N 54°42' E 020°28'0 0.0
2019-Aug-23 05:28N 54°42' E 020°28'0 0.0
2019-Aug-23 04:58N 54°42' E 020°28'0 0.0
2019-Aug-23 04:30N 54°42' E 020°28'1 1.6
2019-Aug-23 04:01N 54°42' E 020°27'3 5.9
2019-Aug-23 03:30N 54°41' E 020°22'4 7.1
2019-Aug-23 03:00N 54°41' E 020°16'4 8.2
2019-Aug-23 02:30N 54°40' E 020°09'5 9.0
2019-Aug-23 02:00N 54°38' E 020°01'4 8.7
2019-Aug-23 01:30N 54°38' E 019°54'3 5.9
2019-Aug-23 01:00N 54°40' E 019°50'2 4.9
2019-Aug-23 00:31N 54°41' E 019°46'3 5.2
2019-Aug-23 00:01N 54°42' E 019°42'3 5.2
2019-Aug-22 23:30N 54°43' E 019°38'3 5.1
2019-Aug-22 23:00N 54°44' E 019°34'2 4.6
2019-Aug-22 22:31N 54°45' E 019°30'3 6.1
2019-Aug-22 22:00N 54°42' E 019°26'3 5.9
2019-Aug-22 21:30N 54°40' E 019°23'1 2.1
2019-Aug-22 21:00N 54°41' E 019°24'2 4.1
2019-Aug-22 20:30N 54°42' E 019°26'2 4.5
2019-Aug-22 20:00N 54°44' E 019°29'3 6.0
2019-Aug-22 19:30N 54°47' E 019°31'4 7.5
2019-Aug-22 19:00N 54°51' E 019°31'3 6.3
2019-Aug-22 18:30N 54°54' E 019°30'1 1.7
2019-Aug-22 18:00N 54°53' E 019°31'0 0.5
2019-Aug-22 17:30N 54°53' E 019°31'1 2.1
2019-Aug-22 17:00N 54°52' E 019°31'1 1.1
2019-Aug-22 16:30N 54°51' E 019°31'1 1.5
2019-Aug-22 16:00N 54°51' E 019°31'81 2.1
2019-Aug-21 01:02N 56°10' E 019°02'0 0.9
2019-Aug-21 00:59N 56°10' E 019°02'1 0.9
2019-Aug-21 00:23N 56°09' E 019°02'1 0.9
2019-Aug-20 23:33N 56°09' E 019°01'0 1.0
2019-Aug-20 23:26N 56°09' E 019°01'1 1.0
2019-Aug-20 22:50N 56°08' E 019°02'2 4.9
2019-Aug-20 22:24N 56°10' E 018°60'3 5.6
2019-Aug-20 21:56N 56°12' E 018°57'  
2019-Aug-18 13:18N 55°30' E 018°45'0 0.4
2019-Aug-18 12:58N 55°30' E 018°45'1 2.2
2019-Aug-18 12:30N 55°30' E 018°44'23 4.8
2019-Aug-18 07:46N 55°25' E 018°05'5 5.4
2019-Aug-18 06:53N 55°29' E 017°58'3 1.0
2019-Aug-18 03:16N 55°27' E 017°53'0 1.1
2019-Aug-18 02:52N 55°27' E 017°52'0 1.1
2019-Aug-18 02:30N 55°26' E 017°51'1 1.2
2019-Aug-18 02:00N 55°26' E 017°51'1 1.2
2019-Aug-18 01:30N 55°25' E 017°50'1 1.2
2019-Aug-18 00:58N 55°25' E 017°50'2 4.8
2019-Aug-18 00:30N 55°23' E 017°51'17 1.6
2019-Aug-17 14:08N 55°12' E 017°28'23 9.0
2019-Aug-17 11:34N 55°05' E 016°50'1 8.8
2019-Aug-17 11:30N 55°04' E 016°49'4 8.8
2019-Aug-17 11:00N 55°04' E 016°42'4 8.8
2019-Aug-17 10:30N 55°02' E 016°35'4 8.8
2019-Aug-17 10:00N 55°01' E 016°27'5 9.2
2019-Aug-17 09:30N 54°59' E 016°20'5 9.1
2019-Aug-17 09:00N 54°58' E 016°12'5 8.9
2019-Aug-17 08:29N 54°56' E 016°05'7 8.5
2019-Aug-17 07:40N 54°51' E 015°57'68 8.6
2019-Aug-16 23:46N 54°40' E 014°01'2 8.7
2019-Aug-16 23:30N 54°40' E 013°57'5 9.0
2019-Aug-16 22:58N 54°42' E 013°49'4 8.7
2019-Aug-16 22:28N 54°43' E 013°42'29 9.0
2019-Aug-16 19:14N 54°44' E 012°52'1 5.8
2019-Aug-16 19:00N 54°44' E 012°50'2 3.7
2019-Aug-16 18:30N 54°43' E 012°47'9 9.2
2019-Aug-16 17:29N 54°40' E 012°32'5 9.7
2019-Aug-16 16:57N 54°37' E 012°24'4 9.0
2019-Aug-16 16:30N 54°34' E 012°19'9 9.0
2019-Aug-16 15:29N 54°26' E 012°12'4 7.4
2019-Aug-16 14:59N 54°24' E 012°06'12 8.5
2019-Aug-16 13:36N 54°24' E 011°46'110.8
2019-Aug-16 13:30N 54°25' E 011°45'510.5
2019-Aug-16 13:00N 54°27' E 011°37'5 9.8
2019-Aug-16 12:30N 54°29' E 011°29'510.4
2019-Aug-16 12:00N 54°32' E 011°21'510.5
2019-Aug-16 11:30N 54°34' E 011°13'510.7
2019-Aug-16 11:00N 54°37' E 011°05'510.2
2019-Aug-16 10:30N 54°40' E 010°58'5 9.2
2019-Aug-16 10:00N 54°43' E 010°52'5 9.5
2019-Aug-16 09:30N 54°48' E 010°52'5 9.4
2019-Aug-16 09:00N 54°52' E 010°53'4 8.6
2019-Aug-16 08:30N 54°56' E 010°56'4 8.4
2019-Aug-16 08:00N 54°60' E 011°01'4 8.9
2019-Aug-16 07:30N 55°04' E 011°02'4 8.9
2019-Aug-16 07:00N 55°08' E 011°02'4 8.4
2019-Aug-16 06:30N 55°12' E 011°05'5 9.0
2019-Aug-16 06:00N 55°17' E 011°04'6 8.3
2019-Aug-16 05:18N 55°22' E 011°02'98 7.2
2019-Aug-15 15:43N 56°57' E 011°44'1 6.0
2019-Aug-15 15:29N 56°59' E 011°43'3 6.2
2019-Aug-15 15:00N 57°01' E 011°41'3 6.5
2019-Aug-15 14:30N 57°04' E 011°39'3 6.0
2019-Aug-15 14:00N 57°07' E 011°37'3 6.8
2019-Aug-15 13:30N 57°11' E 011°35'3 6.8
2019-Aug-15 13:00N 57°14' E 011°33'4 7.0
2019-Aug-15 12:30N 57°17' E 011°31'3 6.1
2019-Aug-15 12:00N 57°20' E 011°29'3 5.6
2019-Aug-15 11:30N 57°23' E 011°27'3 5.8
2019-Aug-15 11:00N 57°25' E 011°25'3 6.4
2019-Aug-15 10:30N 57°28' E 011°22'3 6.6
2019-Aug-15 10:00N 57°30' E 011°18'4 7.0
2019-Aug-15 09:30N 57°33' E 011°13'4 7.4
2019-Aug-15 09:00N 57°35' E 011°08'4 7.6
2019-Aug-15 08:30N 57°38' E 011°03'4 7.3
2019-Aug-15 08:00N 57°40' E 010°58'4 7.4
2019-Aug-15 07:30N 57°43' E 010°53'4 7.7
2019-Aug-15 07:01N 57°45' E 010°48'5 9.0
2019-Aug-15 06:30N 57°49' E 010°42'5 9.4
2019-Aug-15 06:00N 57°50' E 010°33'510.1
2019-Aug-15 05:30N 57°50' E 010°23'5 9.9
2019-Aug-15 04:59N 57°49' E 010°14'710.0
2019-Aug-15 04:15N 57°49' E 010°00'510.0
2019-Aug-15 03:48N 57°49' E 009°51'710.2
2019-Aug-15 03:05N 57°49' E 009°38'110.9
2019-Aug-15 02:59N 57°49' E 009°36'511.0
2019-Aug-15 02:29N 57°49' E 009°26'510.7
2019-Aug-15 01:59N 57°48' E 009°15'510.6
2019-Aug-15 01:30N 57°48' E 009°06'510.6
2019-Aug-15 01:00N 57°47' E 008°56'610.9
2019-Aug-15 00:30N 57°46' E 008°46'510.8
2019-Aug-15 00:01N 57°45' E 008°36'510.5
2019-Aug-14 23:31N 57°44' E 008°27'510.1
2019-Aug-14 23:00N 57°43' E 008°17'5 9.7
2019-Aug-14 22:31N 57°42' E 008°08'5 9.6
2019-Aug-14 22:00N 57°42' E 007°59'5 9.9
2019-Aug-14 21:31N 57°41' E 007°50'510.0
2019-Aug-14 21:00N 57°41' E 007°41'5 9.7
2019-Aug-14 20:30N 57°41' E 007°32'5 9.2
2019-Aug-14 20:00N 57°42' E 007°23'5 9.4
2019-Aug-14 19:30N 57°42' E 007°14'5 9.2
2019-Aug-14 19:00N 57°43' E 007°06'4 8.9
2019-Aug-14 18:30N 57°43' E 006°58'5 9.9
2019-Aug-14 18:00N 57°43' E 006°48'510.1
2019-Aug-14 17:30N 57°43' E 006°39'5 9.8
2019-Aug-14 17:00N 57°45' E 006°30'5 9.7
2019-Aug-14 16:30N 57°48' E 006°23'4 7.4
2019-Aug-14 16:00N 57°50' E 006°17'1 1.9
2019-Aug-14 15:29N 57°51' E 006°16'2 3.4
2019-Aug-14 15:00N 57°52' E 006°14'2 3.6
2019-Aug-14 14:30N 57°54' E 006°12'1 2.4
2019-Aug-14 14:00N 57°55' E 006°11'2 3.6
2019-Aug-14 13:30N 57°56' E 006°09'2 4.2
2019-Aug-14 13:00N 57°55' E 006°05'2 3.5
2019-Aug-14 12:29N 57°53' E 006°05'0 0.5
2019-Aug-14 12:01N 57°53' E 006°05'1 1.4
2019-Aug-14 11:30N 57°53' E 006°05'4 7.4
2019-Aug-14 11:00N 57°57' E 006°02'510.3
2019-Aug-14 10:30N 58°00' E 005°55'5 9.3
2019-Aug-14 10:00N 58°03' E 005°48'5 9.5
2019-Aug-14 09:30N 58°06' E 005°42'510.0
2019-Aug-14 09:00N 58°10' E 005°35'5 9.9
2019-Aug-14 08:30N 58°13' E 005°27'5 9.7
2019-Aug-14 08:00N 58°16' E 005°20'5 9.6
2019-Aug-14 07:30N 58°19' E 005°14'5 9.4
2019-Aug-14 07:01N 58°23' E 005°08'5 9.3
2019-Aug-14 06:30N 58°26' E 005°02'5 9.1
2019-Aug-14 06:00N 58°30' E 004°57'4 9.0
2019-Aug-14 05:30N 58°33' E 004°51'5 9.5
2019-Aug-14 05:00N 58°37' E 004°45'5 9.6
2019-Aug-14 04:31N 58°40' E 004°39'5 9.9
2019-Aug-14 04:00N 58°44' E 004°32'510.5
2019-Aug-14 03:30N 58°48' E 004°25'510.6
2019-Aug-14 03:00N 58°52' E 004°18'510.3
2019-Aug-14 02:30N 58°55' E 004°11'510.2
2019-Aug-14 01:59N 58°59' E 004°03'4 9.4
2019-Aug-14 01:30N 59°03' E 004°02'5 9.5
2019-Aug-14 01:01N 59°08' E 004°02'5 9.3
2019-Aug-14 00:30N 59°12' E 004°02'5 9.4
2019-Aug-14 00:00N 59°17' E 004°02'4 9.0
2019-Aug-13 23:30N 59°22' E 004°02'4 8.7
2019-Aug-13 23:00N 59°26' E 004°02'5 9.1
2019-Aug-13 22:30N 59°31' E 004°02'5 9.4
2019-Aug-13 21:59N 59°35' E 004°02'5 9.4
2019-Aug-13 21:30N 59°40' E 004°02'5 9.6
2019-Aug-13 21:00N 59°45' E 004°03'5 9.5
2019-Aug-13 20:30N 59°49' E 004°03'5 9.8
2019-Aug-13 20:00N 59°54' E 004°03'5 9.4
2019-Aug-13 19:30N 59°59' E 004°03'5 9.5
2019-Aug-13 19:00N 60°04' E 004°03'5 9.5
2019-Aug-13 18:30N 60°09' E 004°03'5 9.6
2019-Aug-13 17:59N 60°13' E 004°03'5 9.6
2019-Aug-13 17:30N 60°18' E 004°03'5 9.4
2019-Aug-13 17:00N 60°23' E 004°03'5 9.1
2019-Aug-13 16:30N 60°27' E 004°02'5 9.5
2019-Aug-13 16:00N 60°32' E 004°03'5 9.7
2019-Aug-13 15:29N 60°37' E 004°03'5 9.6
2019-Aug-13 15:00N 60°42' E 004°03'5 9.7
2019-Aug-13 14:30N 60°47' E 004°03'5 9.7
2019-Aug-13 14:00N 60°51' E 004°03'5 9.5
2019-Aug-13 13:30N 60°56' E 004°03'5 9.2
2019-Aug-13 12:59N 61°01' E 004°03'4 8.9
2019-Aug-13 12:30N 61°05' E 004°03'5 8.9
2019-Aug-13 11:59N 61°10' E 004°03'4 8.9
2019-Aug-13 11:29N 61°14' E 004°03'4 8.9
2019-Aug-13 11:00N 61°19' E 004°03'4 9.0
2019-Aug-13 10:30N 61°23' E 004°03'  

Dump ship's entire track history